createdAt,value
2019-06-26T00:01:53.833Z,17.62
2019-06-26T00:04:21.703Z,18.62
2019-06-26T00:06:49.640Z,19.75
2019-06-26T00:09:17.865Z,19.02
2019-06-26T00:11:46.211Z,17.80
2019-06-26T00:14:14.496Z,18.70
2019-06-26T00:16:42.455Z,16.85
2019-06-26T00:19:10.328Z,17.23
2019-06-26T00:21:38.384Z,16.85
2019-06-26T00:24:06.798Z,14.93
2019-06-26T00:26:34.738Z,13.88
2019-06-26T00:29:03.265Z,14.15
2019-06-26T00:31:31.380Z,17.35
2019-06-26T00:33:59.471Z,20.80
2019-06-26T00:36:27.549Z,16.90
2019-06-26T00:38:56.017Z,16.17
2019-06-26T00:41:24.184Z,18.50
2019-06-26T00:43:52.285Z,15.98
2019-06-26T00:46:20.358Z,17.25
2019-06-26T00:48:48.800Z,21.40
2019-06-26T00:51:16.910Z,20.70
2019-06-26T00:53:44.951Z,20.88
2019-06-26T00:56:13.040Z,18.57
2019-06-26T00:58:41.431Z,18.52
2019-06-26T01:01:09.558Z,18.42
2019-06-26T01:03:37.694Z,18.35
2019-06-26T01:06:08.030Z,19.10
2019-06-26T01:08:36.157Z,18.75
2019-06-26T01:11:04.245Z,21.15
2019-06-26T01:13:32.913Z,23.12
2019-06-26T01:16:00.969Z,22.17
2019-06-26T01:18:29.284Z,19.65
2019-06-26T01:20:57.520Z,21.00
2019-06-26T01:23:25.495Z,18.92
2019-06-26T01:25:54.199Z,19.85
2019-06-26T01:28:22.037Z,20.80
2019-06-26T01:30:50.511Z,21.73
2019-06-26T01:33:18.843Z,20.30
2019-06-26T01:35:47.102Z,20.68
2019-06-26T01:38:15.239Z,24.07
2019-06-26T01:40:43.432Z,24.10
2019-06-26T01:43:11.304Z,22.45
2019-06-26T01:45:39.260Z,25.00
2019-06-26T01:48:07.557Z,23.98
2019-06-26T01:50:35.587Z,24.60
2019-06-26T01:53:03.584Z,17.37
2019-06-26T01:55:31.582Z,16.42
2019-06-26T01:58:00.722Z,17.05
2019-06-26T02:00:29.541Z,17.00
2019-06-26T02:02:57.579Z,16.97
2019-06-26T02:05:25.715Z,16.75
2019-06-26T02:07:54.233Z,15.88
2019-06-26T02:10:22.865Z,15.40
2019-06-26T02:12:51.380Z,15.23
2019-06-26T02:15:21.437Z,15.65
2019-06-26T02:17:49.828Z,14.45
2019-06-26T02:20:18.381Z,15.70
2019-06-26T02:22:49.447Z,16.48
2019-06-26T02:25:16.579Z,15.03
2019-06-26T02:27:44.671Z,17.45
2019-06-26T02:30:12.742Z,17.87
2019-06-26T02:32:40.852Z,20.80
2019-06-26T02:35:10.425Z,17.35
2019-06-26T02:37:39.316Z,17.32
2019-06-26T02:40:07.954Z,18.55
2019-06-26T02:42:36.090Z,19.37
2019-06-26T02:45:04.988Z,19.42
2019-06-26T02:47:33.164Z,18.25
2019-06-26T02:50:01.148Z,19.80
2019-06-26T02:52:29.171Z,18.30
2019-06-26T02:54:57.363Z,18.82
2019-06-26T02:57:25.607Z,18.95
2019-06-26T02:59:53.714Z,19.02
2019-06-26T03:02:22.049Z,18.67
2019-06-26T03:04:50.556Z,19.23
2019-06-26T03:07:18.398Z,21.70
2019-06-26T03:09:46.516Z,19.98
2019-06-26T03:12:15.021Z,19.82
2019-06-26T03:14:43.485Z,16.40
2019-06-26T03:17:11.651Z,18.25
2019-06-26T03:19:39.665Z,15.58
2019-06-26T03:22:08.301Z,14.43
2019-06-26T03:24:36.212Z,13.70
2019-06-26T03:27:04.226Z,13.38
2019-06-26T03:29:32.286Z,13.78
2019-06-26T03:32:00.374Z,13.75
2019-06-26T03:34:28.525Z,14.93
2019-06-26T03:36:56.957Z,16.60
2019-06-26T03:39:25.169Z,19.65
2019-06-26T03:41:53.882Z,24.82
2019-06-26T03:44:21.916Z,24.27
2019-06-26T03:46:49.996Z,22.82
2019-06-26T03:49:17.938Z,20.08
2019-06-26T03:51:46.462Z,22.85
2019-06-26T03:54:14.573Z,22.67
2019-06-26T03:56:42.573Z,22.52
2019-06-26T03:59:10.487Z,21.30
2019-06-26T04:01:38.582Z,17.20
2019-06-26T04:04:06.826Z,17.12
2019-06-26T04:06:34.877Z,16.35
2019-06-26T04:09:04.379Z,15.03
2019-06-26T04:11:33.519Z,14.00
2019-06-26T04:14:01.987Z,13.10
2019-06-26T04:16:30.055Z,9.78
2019-06-26T04:18:58.080Z,10.00
2019-06-26T04:21:26.003Z,10.48
2019-06-26T04:23:53.820Z,10.50
2019-06-26T04:26:25.369Z,10.80
2019-06-26T04:28:54.701Z,10.43
2019-06-26T04:31:22.530Z,10.68
2019-06-26T04:33:50.652Z,11.00
2019-06-26T04:36:19.378Z,14.45
2019-06-26T04:38:55.779Z,14.53
2019-06-26T04:41:24.234Z,16.07
2019-06-26T04:43:52.563Z,15.70
2019-06-26T04:46:20.905Z,16.12
2019-06-26T04:48:49.104Z,14.98
2019-06-26T04:51:16.925Z,13.98
2019-06-26T04:53:45.208Z,13.98
2019-06-26T04:56:34.218Z,13.65
2019-06-26T04:59:02.140Z,14.15
2019-06-26T05:01:30.969Z,13.50
2019-06-26T05:03:58.991Z,12.58
2019-06-26T05:06:27.326Z,12.30
2019-06-26T05:08:56.155Z,11.97
2019-06-26T05:11:24.121Z,12.60
2019-06-26T05:13:52.044Z,12.40
2019-06-26T05:16:20.702Z,11.90
2019-06-26T05:18:50.119Z,11.48
2019-06-26T05:21:24.554Z,11.83
2019-06-26T05:23:53.205Z,12.30
2019-06-26T05:26:21.061Z,11.08
2019-06-26T05:28:49.260Z,13.08
2019-06-26T05:31:17.864Z,12.78
2019-06-26T05:33:45.883Z,12.88
2019-06-26T05:36:14.005Z,13.10
2019-06-26T05:38:43.868Z,13.90
2019-06-26T05:41:13.172Z,14.38
2019-06-26T05:43:41.908Z,13.80
2019-06-26T05:46:09.767Z,13.75
2019-06-26T05:48:38.711Z,13.95
2019-06-26T05:51:06.615Z,13.68
2019-06-26T05:53:34.787Z,14.20
2019-06-26T05:56:02.934Z,14.23
2019-06-26T05:58:31.336Z,14.28
2019-06-26T06:00:59.386Z,13.85
2019-06-26T06:03:27.684Z,14.00
2019-06-26T06:05:56.624Z,14.18
2019-06-26T06:08:24.703Z,15.38
2019-06-26T06:10:53.205Z,15.58
2019-06-26T06:13:21.728Z,16.20
2019-06-26T06:15:49.861Z,16.07
2019-06-26T06:18:17.946Z,15.93
2019-06-26T06:20:45.991Z,16.37
2019-06-26T06:23:14.092Z,17.67
2019-06-26T06:25:42.038Z,17.02
2019-06-26T06:28:10.156Z,18.12
2019-06-26T06:30:38.483Z,18.60
2019-06-26T06:33:06.573Z,19.52
2019-06-26T06:35:34.664Z,19.30
2019-06-26T06:38:04.399Z,19.40
2019-06-26T06:40:32.789Z,19.25
2019-06-26T06:43:00.896Z,18.92
2019-06-26T06:45:29.704Z,19.50
2019-06-26T06:47:57.750Z,19.25
2019-06-26T06:50:25.840Z,19.50
2019-06-26T06:52:54.341Z,19.92
2019-06-26T06:55:23.421Z,21.12
2019-06-26T06:57:53.511Z,18.02
2019-06-26T07:00:23.043Z,18.20
2019-06-26T07:02:51.081Z,17.77
2019-06-26T07:05:20.835Z,18.17
2019-06-26T07:07:49.320Z,18.90
2019-06-26T07:10:17.594Z,17.90
2019-06-26T07:12:45.603Z,17.40
2019-06-26T07:15:15.670Z,15.75
2019-06-26T07:17:44.879Z,16.35
2019-06-26T07:20:13.965Z,15.10
2019-06-26T07:22:41.819Z,16.53
2019-06-26T07:25:09.505Z,15.45
2019-06-26T07:27:37.957Z,15.60
2019-06-26T07:30:06.403Z,14.50
2019-06-26T07:32:34.535Z,16.55
2019-06-26T07:35:02.987Z,15.85
2019-06-26T07:37:30.845Z,15.90
2019-06-26T07:40:02.061Z,15.28
2019-06-26T07:44:56.549Z,16.65
2019-06-26T07:47:41.567Z,15.78
2019-06-26T07:49:55.023Z,14.53
2019-06-26T07:52:23.166Z,15.93
2019-06-26T07:54:51.661Z,15.85
2019-06-26T07:57:19.618Z,15.18
2019-06-26T07:59:47.907Z,15.48
2019-06-26T08:02:15.895Z,15.00
2019-06-26T08:04:45.176Z,15.72
2019-06-26T08:07:13.162Z,15.43
2019-06-26T08:09:42.217Z,15.30
2019-06-26T08:12:10.598Z,14.80
2019-06-26T08:14:38.711Z,15.30
2019-06-26T08:17:06.737Z,16.07
2019-06-26T08:19:34.649Z,14.85
2019-06-26T08:22:02.693Z,14.20
2019-06-26T08:24:31.590Z,14.60
2019-06-26T08:27:00.112Z,13.75
2019-06-26T08:29:29.080Z,13.18
2019-06-26T08:31:58.671Z,13.83
2019-06-26T08:34:26.773Z,12.43
2019-06-26T08:36:54.840Z,12.30
2019-06-26T08:39:23.161Z,12.30
2019-06-26T08:41:51.480Z,11.48
2019-06-26T08:44:20.036Z,11.75
2019-06-26T08:46:48.124Z,10.25
2019-06-26T08:49:25.559Z,9.90
2019-06-26T08:51:45.804Z,10.00
2019-06-26T08:54:13.964Z,10.00
2019-06-26T08:56:42.185Z,9.60
2019-06-26T08:59:10.012Z,9.80
2019-06-26T09:01:38.780Z,10.03
2019-06-26T09:04:07.720Z,9.73
2019-06-26T09:06:36.143Z,8.88
2019-06-26T09:09:06.764Z,9.00
2019-06-26T09:11:35.809Z,9.23
2019-06-26T09:14:04.981Z,8.80
2019-06-26T09:16:33.045Z,9.15
2019-06-26T09:19:01.053Z,8.15
2019-06-26T09:21:31.232Z,8.50
2019-06-26T09:23:59.843Z,8.45
2019-06-26T09:26:27.890Z,7.33
2019-06-26T09:28:56.816Z,7.35
2019-06-26T09:31:24.908Z,7.75
2019-06-26T09:33:53.546Z,7.90
2019-06-26T09:36:21.667Z,7.53
2019-06-26T09:38:50.039Z,7.80
2019-06-26T09:41:18.459Z,6.80
2019-06-26T09:43:46.588Z,7.12
2019-06-26T09:46:15.010Z,7.28
2019-06-26T09:48:52.829Z,7.50
2019-06-26T09:51:14.366Z,6.80
2019-06-26T09:53:47.282Z,6.87
2019-06-26T09:58:40.612Z,6.75
2019-06-26T10:01:08.990Z,6.75
2019-06-26T10:03:37.195Z,6.60
2019-06-26T10:06:05.629Z,6.17
2019-06-26T10:08:33.738Z,6.83
2019-06-26T10:11:02.203Z,6.95
2019-06-26T10:13:31.714Z,6.45
2019-06-26T10:16:00.764Z,6.20
2019-06-26T10:18:28.997Z,7.20
2019-06-26T10:20:57.433Z,7.45
2019-06-26T10:23:25.719Z,6.50
2019-06-26T10:25:54.592Z,6.53
2019-06-26T10:28:22.680Z,6.53
2019-06-26T10:30:50.588Z,6.65
2019-06-26T10:33:18.505Z,6.92
2019-06-26T10:35:46.905Z,7.83
2019-06-26T10:38:14.856Z,7.35
2019-06-26T10:40:42.816Z,8.20
2019-06-26T10:43:11.016Z,8.05
2019-06-26T10:45:39.074Z,8.05
2019-06-26T10:48:07.788Z,7.85
2019-06-26T10:50:48.243Z,7.47
2019-06-26T10:53:06.035Z,7.47
2019-06-26T10:55:34.152Z,7.53
2019-06-26T10:58:01.987Z,7.50
2019-06-26T11:00:30.818Z,7.47
2019-06-26T11:02:59.244Z,6.87
2019-06-26T11:05:28.101Z,7.78
2019-06-26T11:07:56.633Z,7.40
2019-06-26T11:10:24.711Z,8.28
2019-06-26T11:12:52.752Z,7.58
2019-06-26T11:15:22.487Z,7.50
2019-06-26T11:17:50.442Z,7.65
2019-06-26T11:20:19.862Z,7.62
2019-06-26T11:22:47.828Z,8.00
2019-06-26T11:25:28.997Z,8.10
2019-06-26T11:27:57.121Z,7.42
2019-06-26T11:30:25.768Z,7.65
2019-06-26T11:32:54.028Z,7.60
2019-06-26T11:35:23.053Z,6.90
2019-06-26T11:37:51.089Z,6.22
2019-06-26T11:40:19.564Z,6.95
2019-06-26T11:42:47.994Z,7.03
2019-06-26T11:45:16.438Z,7.37
2019-06-26T11:47:45.956Z,6.72
2019-06-26T11:52:42.480Z,6.90
2019-06-26T11:55:11.974Z,7.75
2019-06-26T11:57:40.095Z,7.53
2019-06-26T12:00:09.564Z,7.40
2019-06-26T12:02:38.269Z,7.92
2019-06-26T12:05:06.472Z,7.60
2019-06-26T12:07:35.413Z,8.38
2019-06-26T12:10:22.543Z,8.08
2019-06-26T12:13:16.115Z,8.20
2019-06-26T12:15:51.502Z,8.30
2019-06-26T12:18:46.724Z,8.23
2019-06-26T12:21:34.151Z,7.62
2019-06-26T12:24:19.824Z,7.75
2019-06-26T12:26:50.315Z,7.85
2019-06-26T12:29:22.016Z,7.90
2019-06-26T12:31:50.010Z,7.30
2019-06-26T12:34:18.095Z,7.30
2019-06-26T12:36:46.188Z,7.25
2019-06-26T12:39:14.586Z,6.90
2019-06-26T12:41:42.838Z,6.87
2019-06-26T12:44:10.879Z,6.75
2019-06-26T12:46:39.653Z,6.97
2019-06-26T12:49:07.734Z,6.90
2019-06-26T12:51:35.849Z,7.03
2019-06-26T12:54:03.988Z,7.00
2019-06-26T12:56:32.227Z,6.70
2019-06-26T12:59:00.316Z,7.30
2019-06-26T13:01:28.838Z,6.75
2019-06-26T13:03:57.310Z,7.03
2019-06-26T13:06:25.259Z,7.17
2019-06-26T13:08:53.276Z,6.55
2019-06-26T13:11:21.521Z,6.87
2019-06-26T13:14:03.891Z,6.85
2019-06-26T13:16:46.708Z,6.78
2019-06-26T13:19:17.695Z,6.40
2019-06-26T13:21:45.677Z,7.22
2019-06-26T13:24:13.956Z,6.53
2019-06-26T13:26:42.202Z,6.60
2019-06-26T13:29:10.522Z,6.85
2019-06-26T13:31:39.572Z,6.75
2019-06-26T13:34:07.862Z,6.70
2019-06-26T13:36:36.312Z,6.62
2019-06-26T13:39:05.439Z,6.55
2019-06-26T13:41:33.504Z,6.08
2019-06-26T13:44:01.343Z,6.42
2019-06-26T13:46:30.848Z,6.25
2019-06-26T13:48:59.489Z,6.78
2019-06-26T13:51:27.975Z,26.65
2019-06-26T13:53:56.313Z,6.90
2019-06-26T13:56:24.414Z,5.40
2019-06-26T13:58:53.489Z,5.90
2019-06-26T14:01:23.190Z,6.12
2019-06-26T14:06:19.865Z,5.62
2019-06-26T14:08:48.147Z,5.17
2019-06-26T14:11:16.781Z,5.62
2019-06-26T14:13:45.913Z,6.12
2019-06-26T14:16:14.083Z,5.72
2019-06-26T14:18:43.021Z,5.28
2019-06-26T14:21:24.982Z,5.57
2019-06-26T14:23:44.897Z,5.65
2019-06-26T14:26:12.882Z,5.60
2019-06-26T14:28:41.762Z,5.60
2019-06-26T14:31:10.340Z,5.53
2019-06-26T14:33:40.677Z,5.55
2019-06-26T14:36:08.813Z,5.37
2019-06-26T14:38:37.241Z,5.55
2019-06-26T14:41:05.446Z,5.08
2019-06-26T14:43:33.683Z,5.83
2019-06-26T14:46:02.301Z,4.95
2019-06-26T14:48:30.379Z,5.40
2019-06-26T14:50:58.465Z,5.08
2019-06-26T14:53:27.429Z,5.05
2019-06-26T14:55:56.860Z,5.22
2019-06-26T14:58:26.465Z,5.75
2019-06-26T15:03:23.025Z,5.60
2019-06-26T15:05:51.475Z,5.40
2019-06-26T15:08:20.287Z,5.33
2019-06-26T15:10:48.833Z,5.85
2019-06-26T15:13:17.639Z,5.83
2019-06-26T15:15:47.358Z,5.57
2019-06-26T15:20:43.432Z,5.40
2019-06-26T15:23:13.070Z,5.60
2019-06-26T15:25:41.286Z,5.90
2019-06-26T15:28:12.000Z,5.08
2019-06-26T15:30:40.495Z,5.42
2019-06-26T15:33:08.543Z,5.45
2019-06-26T15:35:36.622Z,6.03
2019-06-26T15:38:04.990Z,5.70
2019-06-26T15:40:33.907Z,5.53
2019-06-26T15:43:01.838Z,5.80
2019-06-26T15:45:30.544Z,5.85
2019-06-26T15:47:59.054Z,5.60
2019-06-26T15:50:27.489Z,5.45
2019-06-26T15:52:55.579Z,5.65
2019-06-26T15:55:23.621Z,5.85
2019-06-26T15:57:51.976Z,5.60
2019-06-26T16:00:20.293Z,5.87
2019-06-26T16:02:49.091Z,5.80
2019-06-26T16:05:17.388Z,5.93
2019-06-26T16:07:45.671Z,5.92
2019-06-26T16:10:13.998Z,6.03
2019-06-26T16:12:42.073Z,5.72
2019-06-26T16:15:12.039Z,6.15
2019-06-26T16:17:50.117Z,5.20
2019-06-26T16:20:18.698Z,5.67
2019-06-26T16:22:46.962Z,5.80
2019-06-26T16:25:15.375Z,6.08
2019-06-26T16:27:43.809Z,5.72
2019-06-26T16:30:12.308Z,5.72
2019-06-26T16:32:41.374Z,6.00
2019-06-26T16:35:12.216Z,6.28
2019-06-26T16:37:39.744Z,5.70
2019-06-26T16:40:07.947Z,5.85
2019-06-26T16:42:36.367Z,6.00
2019-06-26T16:45:05.106Z,5.80
2019-06-26T16:47:33.839Z,5.83
2019-06-26T16:50:01.757Z,6.27
2019-06-26T16:52:47.472Z,6.03
2019-06-26T16:55:01.954Z,5.87
2019-06-26T16:57:31.494Z,5.83
2019-06-26T17:00:09.313Z,5.33
2019-06-26T17:02:29.710Z,5.72
2019-06-26T17:04:58.166Z,5.90
2019-06-26T17:07:28.011Z,5.90
2019-06-26T17:09:56.197Z,5.85
2019-06-26T17:12:24.147Z,5.80
2019-06-26T17:14:52.667Z,5.37
2019-06-26T17:17:20.625Z,6.47
2019-06-26T17:19:49.664Z,5.92
2019-06-26T17:22:18.089Z,6.22
2019-06-26T17:24:46.743Z,5.80
2019-06-26T17:27:14.590Z,5.95
2019-06-26T17:29:43.296Z,6.45
2019-06-26T17:32:11.817Z,7.20
2019-06-26T17:34:40.303Z,6.73
2019-06-26T17:37:08.380Z,7.12
2019-06-26T17:39:37.926Z,7.65
2019-06-26T17:42:06.115Z,7.12
2019-06-26T17:44:34.231Z,7.15
2019-06-26T17:47:05.267Z,7.08
2019-06-26T17:49:32.197Z,7.17
2019-06-26T17:52:00.903Z,7.28
2019-06-26T17:54:29.755Z,9.50
2019-06-26T17:56:58.376Z,6.87
2019-06-26T17:59:27.957Z,6.83
2019-06-26T18:04:25.030Z,7.20
2019-06-26T18:06:53.932Z,6.42
2019-06-26T18:09:23.766Z,6.87
2019-06-26T18:11:55.692Z,7.30
2019-06-26T18:14:23.808Z,7.28
2019-06-26T18:16:52.019Z,6.97
2019-06-26T18:19:20.527Z,7.35
2019-06-26T18:21:48.497Z,6.90
2019-06-26T18:24:16.590Z,7.15
2019-06-26T18:26:44.605Z,7.25
2019-06-26T18:29:12.789Z,6.75
2019-06-26T18:31:40.836Z,6.97
2019-06-26T18:34:08.930Z,7.92
2019-06-26T18:36:37.047Z,7.87
2019-06-26T18:39:07.175Z,7.72
2019-06-26T18:41:35.721Z,8.60
2019-06-26T18:44:05.337Z,8.40
2019-06-26T18:46:33.450Z,8.05
2019-06-26T18:49:02.208Z,8.15
2019-06-26T18:51:30.755Z,7.43
2019-06-26T18:54:01.102Z,8.43
2019-06-26T18:56:29.161Z,7.92
2019-06-26T18:58:57.562Z,7.65
2019-06-26T19:01:26.337Z,8.40
2019-06-26T19:03:54.994Z,8.45
2019-06-26T19:06:23.229Z,7.78
2019-06-26T19:08:51.844Z,7.95
2019-06-26T19:11:20.613Z,8.30
2019-06-26T19:13:49.110Z,8.10
2019-06-26T19:16:18.452Z,8.35
2019-06-26T19:18:46.890Z,9.00
2019-06-26T19:21:16.186Z,8.78
2019-06-26T19:23:44.569Z,9.50
2019-06-26T19:26:12.993Z,10.50
2019-06-26T19:28:41.239Z,9.50
2019-06-26T19:31:09.428Z,9.90
2019-06-26T19:33:39.056Z,9.78
2019-06-26T19:36:07.448Z,9.60
2019-06-26T19:38:36.482Z,10.68
2019-06-26T19:41:08.391Z,9.98
2019-06-26T19:43:35.508Z,10.15
2019-06-26T19:46:05.085Z,10.15
2019-06-26T19:48:33.536Z,11.08
2019-06-26T19:51:01.556Z,10.48
2019-06-26T19:53:30.480Z,9.25
2019-06-26T19:55:59.373Z,10.88
2019-06-26T19:58:27.585Z,11.53
2019-06-26T20:00:55.917Z,12.47
2019-06-26T20:03:23.750Z,12.07
2019-06-26T20:05:52.559Z,12.15
2019-06-26T20:08:20.908Z,12.00
2019-06-26T20:10:49.031Z,12.13
2019-06-26T20:13:16.964Z,12.25
2019-06-26T20:15:45.561Z,11.70
2019-06-26T20:18:14.177Z,11.93
2019-06-26T20:20:42.692Z,12.40
2019-06-26T20:23:10.559Z,11.63
2019-06-26T20:25:38.642Z,11.73
2019-06-26T20:28:06.747Z,12.45
2019-06-26T20:30:35.187Z,12.00
2019-06-26T20:33:03.527Z,13.35
2019-06-26T20:35:40.669Z,13.68
2019-06-26T20:38:08.803Z,12.90
2019-06-26T20:40:37.174Z,12.70
2019-06-26T20:43:05.382Z,11.93
2019-06-26T20:45:33.486Z,12.58
2019-06-26T20:48:02.424Z,12.70
2019-06-26T20:50:30.624Z,12.05
2019-06-26T20:52:59.157Z,13.00
2019-06-26T20:55:27.471Z,11.90
2019-06-26T20:57:56.237Z,12.40
2019-06-26T21:00:24.838Z,12.80
2019-06-26T21:02:54.297Z,12.95
2019-06-26T21:05:22.720Z,13.15
2019-06-26T21:07:51.232Z,12.82
2019-06-26T21:10:19.649Z,12.28
2019-06-26T21:12:48.121Z,14.18
2019-06-26T21:15:16.156Z,15.72
2019-06-26T21:17:44.507Z,16.45
2019-06-26T21:20:13.048Z,15.98
2019-06-26T21:22:43.408Z,14.98
2019-06-26T21:28:18.788Z,13.10
2019-06-26T21:30:46.785Z,11.75
2019-06-26T21:33:15.242Z,12.53
2019-06-26T21:35:44.165Z,11.73
2019-06-26T21:38:12.209Z,11.63
2019-06-26T21:40:40.916Z,10.88
2019-06-26T21:43:09.261Z,10.93
2019-06-26T21:45:37.540Z,10.85
2019-06-26T21:48:05.655Z,11.45
2019-06-26T21:50:34.594Z,11.33
2019-06-26T21:53:03.130Z,10.80
2019-06-26T21:58:21.055Z,11.90
2019-06-26T22:01:07.632Z,11.60
2019-06-26T22:03:53.975Z,11.12
2019-06-26T22:06:24.719Z,11.15
2019-06-26T22:09:10.163Z,11.73
2019-06-26T22:11:40.363Z,11.50
2019-06-26T22:14:09.108Z,11.78
2019-06-26T22:16:37.121Z,12.82
2019-06-26T22:19:05.269Z,13.00
2019-06-26T22:21:34.800Z,14.78
2019-06-26T22:24:02.702Z,13.53
2019-06-26T22:26:30.537Z,14.35
2019-06-26T22:28:58.638Z,14.28
2019-06-26T22:31:26.499Z,13.58
2019-06-26T22:33:55.622Z,14.07
2019-06-26T22:36:23.540Z,14.38
2019-06-26T22:38:51.653Z,14.13
2019-06-26T22:41:19.829Z,15.15
2019-06-26T22:43:48.601Z,15.70
2019-06-26T22:46:18.555Z,15.83
2019-06-26T22:48:46.917Z,15.65
2019-06-26T22:51:15.093Z,16.10
2019-06-26T22:53:43.049Z,15.25
2019-06-26T22:56:11.082Z,13.45
2019-06-26T22:58:39.163Z,13.53
2019-06-26T23:01:07.299Z,14.38
2019-06-26T23:03:35.514Z,16.05
2019-06-26T23:06:04.897Z,16.57
2019-06-26T23:08:32.871Z,16.70
2019-06-26T23:11:01.269Z,17.80
2019-06-26T23:13:29.754Z,17.73
2019-06-26T23:15:58.658Z,16.32
2019-06-26T23:18:26.788Z,15.90
2019-06-26T23:20:56.230Z,16.60
2019-06-26T23:23:25.036Z,15.30
2019-06-26T23:25:54.099Z,16.02
2019-06-26T23:28:22.379Z,14.30
2019-06-26T23:30:50.315Z,14.70
2019-06-26T23:33:18.221Z,16.07
2019-06-26T23:35:46.280Z,15.98
2019-06-26T23:38:16.012Z,15.85
2019-06-26T23:40:43.946Z,17.85
2019-06-26T23:43:12.018Z,17.42
2019-06-26T23:45:40.230Z,17.17
2019-06-26T23:48:08.609Z,16.65
2019-06-26T23:50:36.580Z,16.73
2019-06-26T23:53:05.036Z,16.30
2019-06-26T23:55:33.114Z,17.37
2019-06-26T23:58:01.101Z,16.73
